createdAt,value
2019-03-31T00:50:54.817Z,99.90
2019-03-31T00:56:02.434Z,99.90
2019-03-31T01:01:09.869Z,99.90
2019-03-31T01:06:19.928Z,99.90
2019-03-31T01:11:30.517Z,99.90
2019-03-31T01:16:37.867Z,99.90
2019-03-31T01:21:45.730Z,99.90
2019-03-31T01:26:53.544Z,99.90
2019-03-31T01:32:01.008Z,99.90
2019-03-31T01:37:08.891Z,99.90
2019-03-31T01:42:16.508Z,99.90
2019-03-31T01:47:24.486Z,99.90
2019-03-31T01:52:31.821Z,99.90
2019-03-31T01:57:39.824Z,99.70
2019-03-31T02:02:47.887Z,99.60
2019-03-31T02:07:55.426Z,99.20
2019-03-31T02:13:02.973Z,98.90
2019-03-31T02:18:10.598Z,98.60
2019-03-31T02:23:18.345Z,98.90
2019-03-31T02:28:26.214Z,98.60
2019-03-31T02:33:55.835Z,98.40
2019-03-31T02:39:03.770Z,98.00
2019-03-31T02:44:18.402Z,97.80
2019-03-31T02:49:27.088Z,97.80
2019-03-31T02:54:34.907Z,97.40
2019-03-31T02:59:42.805Z,97.30
2019-03-31T03:04:51.587Z,97.90
2019-03-31T03:09:59.750Z,96.80
2019-03-31T03:15:09.004Z,96.20
2019-03-31T03:20:17.570Z,96.30
2019-03-31T03:25:25.804Z,95.80
2019-03-31T03:30:33.758Z,96.40
2019-03-31T03:35:42.662Z,94.90
2019-03-31T03:40:50.399Z,94.60
2019-03-31T03:45:58.850Z,93.90
2019-03-31T03:51:06.943Z,93.50
2019-03-31T03:56:14.740Z,93.80
2019-03-31T04:01:24.414Z,92.50
2019-03-31T04:06:32.363Z,91.10
2019-03-31T04:11:40.178Z,91.10
2019-03-31T04:16:47.877Z,91.00
2019-03-31T04:21:55.837Z,90.80
2019-03-31T04:27:03.707Z,90.90
2019-03-31T04:32:11.538Z,90.40
2019-03-31T04:37:20.298Z,90.80
2019-03-31T04:42:28.413Z,90.20
2019-03-31T04:47:37.738Z,90.30
2019-03-31T04:52:46.546Z,89.90
2019-03-31T04:57:54.419Z,87.70
2019-03-31T05:03:02.162Z,86.10
2019-03-31T05:08:09.633Z,84.50
2019-03-31T05:13:17.911Z,85.30
2019-03-31T05:18:26.575Z,84.50
2019-03-31T05:23:34.293Z,85.30
2019-03-31T05:28:44.304Z,81.00
2019-03-31T05:33:52.689Z,81.80
2019-03-31T05:39:01.104Z,81.10
2019-03-31T05:50:24.134Z,79.60
2019-03-31T05:55:31.913Z,78.00
2019-03-31T06:00:40.882Z,77.20
2019-03-31T06:05:48.842Z,78.20
2019-03-31T06:10:55.858Z,76.30
2019-03-31T06:16:02.868Z,75.20
2019-03-31T06:21:09.921Z,76.40
2019-03-31T06:26:16.755Z,72.90
2019-03-31T06:31:23.611Z,72.70
2019-03-31T06:36:31.565Z,73.80
2019-03-31T06:41:39.103Z,72.50
2019-03-31T06:46:48.355Z,71.10
2019-03-31T06:51:56.314Z,71.00
2019-03-31T06:57:03.300Z,71.80
2019-03-31T07:02:10.465Z,72.70
2019-03-31T07:07:18.774Z,72.40
2019-03-31T07:12:25.993Z,71.10
2019-03-31T07:17:33.437Z,71.80
2019-03-31T07:22:41.384Z,72.90
2019-03-31T07:27:48.610Z,72.20
2019-03-31T07:32:56.741Z,71.00
2019-03-31T07:38:04.003Z,69.20
2019-03-31T07:43:11.129Z,68.10
2019-03-31T07:48:18.475Z,69.10
2019-03-31T07:53:25.356Z,69.10
2019-03-31T07:58:33.291Z,66.20
2019-03-31T08:03:40.300Z,64.60
2019-03-31T08:08:47.358Z,65.30
2019-03-31T08:13:55.543Z,67.20
2019-03-31T08:19:03.353Z,67.70
2019-03-31T08:24:32.184Z,68.20
2019-03-31T08:29:39.103Z,67.50
2019-03-31T08:34:47.049Z,66.70
2019-03-31T08:39:55.154Z,66.30
2019-03-31T08:45:02.912Z,68.60
2019-03-31T08:50:10.640Z,69.60
2019-03-31T08:55:18.609Z,67.70
2019-03-31T09:00:26.918Z,67.80
2019-03-31T09:05:34.195Z,67.10
2019-03-31T09:10:41.099Z,67.50
2019-03-31T09:15:47.888Z,66.50
2019-03-31T09:20:55.202Z,67.00
2019-03-31T09:26:02.845Z,70.20
2019-03-31T09:31:10.801Z,68.80
2019-03-31T09:36:18.016Z,67.20
2019-03-31T09:41:25.863Z,63.30
2019-03-31T09:46:33.140Z,64.70
2019-03-31T09:51:42.655Z,68.70
2019-03-31T09:56:50.938Z,70.20
2019-03-31T10:01:59.928Z,71.40
2019-03-31T10:07:07.514Z,71.60
2019-03-31T10:12:14.341Z,72.80
2019-03-31T10:17:22.391Z,72.60
2019-03-31T10:22:29.389Z,71.90
2019-03-31T10:27:37.247Z,71.90
2019-03-31T10:32:44.256Z,72.10
2019-03-31T10:37:52.218Z,72.20
2019-03-31T10:43:00.233Z,73.00
2019-03-31T10:48:19.633Z,72.90
2019-03-31T10:53:17.094Z,73.00
2019-03-31T10:58:25.171Z,73.60
2019-03-31T11:03:33.482Z,74.10
2019-03-31T11:08:40.799Z,75.10
2019-03-31T11:13:47.711Z,75.40
2019-03-31T11:18:55.463Z,75.90
2019-03-31T11:24:03.065Z,76.90
2019-03-31T11:29:10.205Z,77.80
2019-03-31T11:34:19.661Z,78.30
2019-03-31T11:39:26.825Z,78.60
2019-03-31T11:44:34.597Z,78.70
2019-03-31T11:49:42.133Z,77.80
2019-03-31T11:54:49.820Z,77.50
2019-03-31T11:59:57.833Z,77.70
2019-03-31T12:05:06.482Z,78.50
2019-03-31T12:10:13.976Z,78.70
2019-03-31T12:15:20.997Z,78.90
2019-03-31T12:20:28.011Z,79.50
2019-03-31T12:25:36.048Z,79.80
2019-03-31T12:30:44.242Z,80.80
2019-03-31T12:35:51.410Z,81.10
2019-03-31T12:40:59.540Z,81.50
2019-03-31T12:46:07.089Z,82.00
2019-03-31T12:51:14.086Z,82.20
2019-03-31T12:56:21.697Z,82.30
2019-03-31T13:01:29.654Z,82.40
2019-03-31T13:06:37.595Z,82.40
2019-03-31T13:11:44.465Z,82.60
2019-03-31T13:16:51.398Z,82.20
2019-03-31T13:21:59.290Z,82.40
2019-03-31T13:27:06.707Z,81.60
2019-03-31T13:32:13.702Z,80.60
2019-03-31T13:37:21.125Z,81.80
2019-03-31T13:42:28.959Z,82.90
2019-03-31T13:47:36.318Z,82.40
2019-03-31T13:52:43.373Z,81.10
2019-03-31T13:57:52.707Z,81.10
2019-03-31T14:02:59.445Z,80.80
2019-03-31T14:08:07.797Z,81.40
2019-03-31T14:13:15.705Z,81.50
2019-03-31T14:18:22.627Z,82.30
2019-03-31T14:23:30.811Z,82.80
2019-03-31T14:28:38.738Z,83.30
2019-03-31T14:33:46.888Z,83.80
2019-03-31T14:38:55.405Z,84.40
2019-03-31T14:44:02.714Z,84.70
2019-03-31T14:49:10.133Z,85.20
2019-03-31T14:54:17.265Z,86.40
2019-03-31T14:59:25.106Z,86.60
2019-03-31T15:04:33.160Z,87.00
2019-03-31T15:09:41.833Z,86.90
2019-03-31T15:14:50.634Z,86.90
2019-03-31T15:19:58.579Z,86.80
2019-03-31T15:25:07.549Z,86.30
2019-03-31T15:30:15.013Z,86.30
2019-03-31T15:35:22.077Z,85.30
2019-03-31T15:40:29.756Z,84.50
2019-03-31T15:45:38.285Z,83.40
2019-03-31T15:50:45.823Z,83.20
2019-03-31T15:55:52.733Z,83.60
2019-03-31T16:00:59.779Z,83.80
2019-03-31T16:06:06.666Z,83.80
2019-03-31T16:11:14.114Z,84.70
2019-03-31T16:16:21.458Z,86.10
2019-03-31T16:21:28.621Z,85.80
2019-03-31T16:26:35.453Z,84.70
2019-03-31T16:31:42.498Z,84.30
2019-03-31T16:36:49.274Z,84.10
2019-03-31T16:41:56.145Z,83.50
2019-03-31T16:47:03.142Z,83.20
2019-03-31T16:52:10.200Z,82.80
2019-03-31T16:57:16.924Z,82.60
2019-03-31T17:02:24.184Z,82.60
2019-03-31T17:07:31.019Z,82.90
2019-03-31T17:12:38.253Z,83.00
2019-03-31T17:17:45.582Z,83.80
2019-03-31T17:22:52.803Z,84.80
2019-03-31T17:27:59.459Z,85.00
2019-03-31T17:33:06.498Z,85.10
2019-03-31T17:38:13.452Z,84.60
2019-03-31T17:43:20.412Z,84.60
2019-03-31T17:48:27.396Z,84.80
2019-03-31T17:53:35.023Z,85.40
2019-03-31T17:58:41.895Z,85.30
2019-03-31T18:03:49.319Z,85.20
2019-03-31T18:08:56.234Z,85.40
2019-03-31T18:14:06.506Z,85.60
2019-03-31T18:19:11.530Z,86.20
2019-03-31T18:24:18.368Z,86.80
2019-03-31T18:29:25.001Z,87.20
2019-03-31T18:34:32.029Z,87.40
2019-03-31T18:39:39.162Z,87.30
2019-03-31T18:44:46.276Z,87.20
2019-03-31T18:49:53.281Z,87.50
2019-03-31T18:55:01.585Z,87.70
2019-03-31T19:00:09.732Z,88.30
2019-03-31T19:05:17.995Z,88.70
2019-03-31T19:10:26.262Z,89.20
2019-03-31T19:15:35.477Z,89.60
2019-03-31T19:20:43.622Z,90.00
2019-03-31T19:25:52.219Z,90.10
2019-03-31T19:31:00.760Z,90.10
2019-03-31T19:36:08.949Z,90.30
2019-03-31T19:41:17.348Z,90.50
2019-03-31T19:46:25.422Z,90.70
2019-03-31T19:51:33.911Z,91.00
2019-03-31T19:56:42.113Z,91.10
2019-03-31T20:01:50.122Z,91.40
2019-03-31T20:06:58.432Z,91.50
2019-03-31T20:12:06.575Z,91.40
2019-03-31T20:17:14.913Z,91.60
2019-03-31T20:22:23.622Z,91.80
2019-03-31T20:27:32.020Z,91.80
2019-03-31T20:32:40.354Z,91.90
2019-03-31T20:37:48.524Z,91.80
2019-03-31T20:42:56.792Z,91.80
2019-03-31T20:48:04.051Z,92.00
2019-03-31T20:53:10.999Z,92.00
2019-03-31T20:58:18.170Z,92.00
2019-03-31T21:03:25.542Z,92.20
2019-03-31T21:08:32.495Z,92.40
2019-03-31T21:13:39.535Z,92.50
2019-03-31T21:18:46.913Z,92.50
2019-03-31T21:23:54.942Z,92.80
2019-03-31T21:29:02.105Z,92.70
2019-03-31T21:34:09.216Z,92.90
2019-03-31T21:39:16.939Z,93.10
2019-03-31T21:44:23.938Z,93.30
2019-03-31T21:49:30.926Z,93.30
2019-03-31T21:54:38.063Z,93.40
2019-03-31T21:59:45.124Z,93.50
2019-03-31T22:04:52.183Z,93.60
2019-03-31T22:09:59.334Z,93.90
2019-03-31T22:15:09.627Z,94.00
2019-03-31T22:20:17.081Z,94.10
2019-03-31T22:25:24.189Z,94.10
2019-03-31T22:30:31.117Z,94.20
2019-03-31T22:35:38.119Z,94.40
2019-03-31T22:40:44.963Z,94.30
2019-03-31T22:45:52.171Z,94.50
2019-03-31T22:50:59.353Z,94.70
2019-03-31T22:56:06.203Z,94.90
2019-03-31T23:01:13.334Z,95.20
2019-03-31T23:06:20.604Z,95.30
2019-03-31T23:11:27.625Z,95.80
2019-03-31T23:16:34.915Z,95.80
2019-03-31T23:21:42.081Z,95.90
2019-03-31T23:26:49.369Z,95.90
2019-03-31T23:31:56.682Z,96.00
2019-03-31T23:37:04.320Z,95.90
2019-03-31T23:42:12.495Z,95.80
2019-03-31T23:47:20.265Z,95.40
2019-03-31T23:52:27.678Z,95.40
2019-03-31T23:57:36.287Z,95.50
